sensor_id;sensor_type;location;lat;lon;timestamp;P1;durP1;ratioP1;P2;durP2;ratioP2
37383;SDS011;23258;49.718;11.082;2023-02-28T00:00:35;3.40;;;3.13;;
37383;SDS011;23258;49.718;11.082;2023-02-28T00:03:05;2.80;;;2.70;;
37383;SDS011;23258;49.718;11.082;2023-02-28T00:05:37;3.03;;;2.83;;
37383;SDS011;23258;49.718;11.082;2023-02-28T00:08:08;2.90;;;2.60;;
37383;SDS011;23258;49.718;11.082;2023-02-28T00:10:38;3.37;;;2.73;;
37383;SDS011;23258;49.718;11.082;2023-02-28T00:13:07;3.50;;;3.20;;
37383;SDS011;23258;49.718;11.082;2023-02-28T00:15:37;3.57;;;3.27;;
37383;SDS011;23258;49.718;11.082;2023-02-28T00:18:07;2.63;;;2.53;;
37383;SDS011;23258;49.718;11.082;2023-02-28T00:20:39;3.47;;;3.17;;
37383;SDS011;23258;49.718;11.082;2023-02-28T00:23:09;3.40;;;3.07;;
37383;SDS011;23258;49.718;11.082;2023-02-28T00:25:38;3.60;;;3.30;;
37383;SDS011;23258;49.718;11.082;2023-02-28T00:28:08;3.20;;;2.90;;
37383;SDS011;23258;49.718;11.082;2023-02-28T00:30:37;3.37;;;3.07;;
37383;SDS011;23258;49.718;11.082;2023-02-28T00:33:07;3.17;;;2.93;;
37383;SDS011;23258;49.718;11.082;2023-02-28T00:35:39;2.93;;;2.73;;
37383;SDS011;23258;49.718;11.082;2023-02-28T00:38:09;3.23;;;3.00;;
37383;SDS011;23258;49.718;11.082;2023-02-28T00:40:38;3.80;;;3.40;;
37383;SDS011;23258;49.718;11.082;2023-02-28T00:43:10;3.93;;;3.53;;
37383;SDS011;23258;49.718;11.082;2023-02-28T00:45:39;3.47;;;3.10;;
37383;SDS011;23258;49.718;11.082;2023-02-28T00:48:09;3.33;;;2.80;;
37383;SDS011;23258;49.718;11.082;2023-02-28T00:50:41;5.40;;;4.00;;
37383;SDS011;23258;49.718;11.082;2023-02-28T00:53:11;5.10;;;3.63;;
37383;SDS011;23258;49.718;11.082;2023-02-28T00:55:40;4.20;;;3.63;;
37383;SDS011;23258;49.718;11.082;2023-02-28T00:58:10;6.40;;;4.47;;
37383;SDS011;23258;49.718;11.082;2023-02-28T01:00:39;4.43;;;4.03;;
37383;SDS011;23258;49.718;11.082;2023-02-28T01:03:10;3.60;;;3.30;;
37383;SDS011;23258;49.718;11.082;2023-02-28T01:05:42;4.00;;;3.40;;
37383;SDS011;23258;49.718;11.082;2023-02-28T01:08:12;6.37;;;4.00;;
37383;SDS011;23258;49.718;11.082;2023-02-28T01:10:42;3.47;;;2.97;;
37383;SDS011;23258;49.718;11.082;2023-02-28T01:13:12;2.90;;;2.70;;
37383;SDS011;23258;49.718;11.082;2023-02-28T01:15:43;5.50;;;3.67;;
37383;SDS011;23258;49.718;11.082;2023-02-28T01:18:14;3.30;;;3.03;;
37383;SDS011;23258;49.718;11.082;2023-02-28T01:20:47;3.37;;;3.07;;
37383;SDS011;23258;49.718;11.082;2023-02-28T01:23:18;3.77;;;3.47;;
37383;SDS011;23258;49.718;11.082;2023-02-28T01:25:48;5.30;;;2.90;;
37383;SDS011;23258;49.718;11.082;2023-02-28T01:28:17;3.53;;;3.23;;
37383;SDS011;23258;49.718;11.082;2023-02-28T01:30:48;3.50;;;3.23;;
37383;SDS011;23258;49.718;11.082;2023-02-28T01:33:18;3.40;;;3.10;;
37383;SDS011;23258;49.718;11.082;2023-02-28T01:35:56;3.73;;;2.90;;
37383;SDS011;23258;49.718;11.082;2023-02-28T01:38:28;5.60;;;3.40;;
37383;SDS011;23258;49.718;11.082;2023-02-28T01:40:58;3.90;;;3.60;;
37383;SDS011;23258;49.718;11.082;2023-02-28T01:43:28;2.97;;;2.77;;
37383;SDS011;23258;49.718;11.082;2023-02-28T01:45:58;6.03;;;3.37;;
37383;SDS011;23258;49.718;11.082;2023-02-28T01:48:29;3.37;;;3.07;;
37383;SDS011;23258;49.718;11.082;2023-02-28T01:51:04;4.07;;;3.40;;
37383;SDS011;23258;49.718;11.082;2023-02-28T01:53:36;3.10;;;2.80;;
37383;SDS011;23258;49.718;11.082;2023-02-28T01:56:06;3.43;;;3.17;;
37383;SDS011;23258;49.718;11.082;2023-02-28T01:58:37;4.90;;;3.40;;
37383;SDS011;23258;49.718;11.082;2023-02-28T02:01:07;3.17;;;2.90;;
37383;SDS011;23258;49.718;11.082;2023-02-28T02:03:47;3.70;;;3.40;;
37383;SDS011;23258;49.718;11.082;2023-02-28T02:06:27;3.10;;;2.80;;
37383;SDS011;23258;49.718;11.082;2023-02-28T02:08:58;3.30;;;3.00;;
37383;SDS011;23258;49.718;11.082;2023-02-28T02:11:29;3.83;;;3.07;;
37383;SDS011;23258;49.718;11.082;2023-02-28T02:16:50;3.27;;;2.97;;
37383;SDS011;23258;49.718;11.082;2023-02-28T02:19:28;3.90;;;3.50;;
37383;SDS011;23258;49.718;11.082;2023-02-28T02:22:15;3.40;;;3.13;;
37383;SDS011;23258;49.718;11.082;2023-02-28T02:27:48;3.00;;;2.80;;
37383;SDS011;23258;49.718;11.082;2023-02-28T02:30:27;3.00;;;2.67;;
37383;SDS011;23258;49.718;11.082;2023-02-28T02:35:52;6.47;;;3.57;;
37383;SDS011;23258;49.718;11.082;2023-02-28T02:38:27;3.03;;;2.73;;
37383;SDS011;23258;49.718;11.082;2023-02-28T02:41:01;3.50;;;3.20;;
37383;SDS011;23258;49.718;11.082;2023-02-28T02:43:34;3.53;;;3.17;;
37383;SDS011;23258;49.718;11.082;2023-02-28T02:46:07;3.40;;;3.13;;
37383;SDS011;23258;49.718;11.082;2023-02-28T02:48:39;3.67;;;3.37;;
37383;SDS011;23258;49.718;11.082;2023-02-28T02:51:15;4.27;;;3.57;;
37383;SDS011;23258;49.718;11.082;2023-02-28T02:53:46;3.20;;;2.90;;
37383;SDS011;23258;49.718;11.082;2023-02-28T02:56:19;3.70;;;3.40;;
37383;SDS011;23258;49.718;11.082;2023-02-28T02:58:50;4.83;;;3.90;;
37383;SDS011;23258;49.718;11.082;2023-02-28T03:01:21;4.73;;;3.40;;
37383;SDS011;23258;49.718;11.082;2023-02-28T03:03:55;3.53;;;3.20;;
37383;SDS011;23258;49.718;11.082;2023-02-28T03:06:28;3.97;;;3.60;;
37383;SDS011;23258;49.718;11.082;2023-02-28T03:08:58;3.80;;;3.37;;
37383;SDS011;23258;49.718;11.082;2023-02-28T03:11:29;4.00;;;3.60;;
37383;SDS011;23258;49.718;11.082;2023-02-28T03:14:02;3.55;;;2.90;;
37383;SDS011;23258;49.718;11.082;2023-02-28T03:16:49;3.27;;;2.97;;
37383;SDS011;23258;49.718;11.082;2023-02-28T03:19:25;3.07;;;2.87;;
37383;SDS011;23258;49.718;11.082;2023-02-28T03:22:13;4.00;;;3.70;;
37383;SDS011;23258;49.718;11.082;2023-02-28T03:24:45;4.60;;;3.43;;
37383;SDS011;23258;49.718;11.082;2023-02-28T03:27:20;3.90;;;3.60;;
37383;SDS011;23258;49.718;11.082;2023-02-28T03:29:56;5.23;;;3.90;;
37383;SDS011;23258;49.718;11.082;2023-02-28T03:32:29;4.03;;;3.73;;
37383;SDS011;23258;49.718;11.082;2023-02-28T03:35:01;3.97;;;3.57;;
37383;SDS011;23258;49.718;11.082;2023-02-28T03:37:35;3.17;;;2.97;;
37383;SDS011;23258;49.718;11.082;2023-02-28T03:40:07;3.87;;;3.40;;
37383;SDS011;23258;49.718;11.082;2023-02-28T03:42:39;3.80;;;3.50;;
37383;SDS011;23258;49.718;11.082;2023-02-28T03:45:11;3.70;;;3.40;;
37383;SDS011;23258;49.718;11.082;2023-02-28T03:47:44;5.83;;;3.70;;
37383;SDS011;23258;49.718;11.082;2023-02-28T03:50:16;3.83;;;3.53;;
37383;SDS011;23258;49.718;11.082;2023-02-28T03:52:49;3.83;;;3.53;;
37383;SDS011;23258;49.718;11.082;2023-02-28T03:55:20;3.27;;;3.07;;
37383;SDS011;23258;49.718;11.082;2023-02-28T03:57:56;4.73;;;3.47;;
37383;SDS011;23258;49.718;11.082;2023-02-28T04:00:27;4.43;;;3.63;;
37383;SDS011;23258;49.718;11.082;2023-02-28T04:02:57;4.20;;;3.83;;
37383;SDS011;23258;49.718;11.082;2023-02-28T04:05:27;4.03;;;3.60;;
37383;SDS011;23258;49.718;11.082;2023-02-28T04:08:05;4.33;;;3.93;;
37383;SDS011;23258;49.718;11.082;2023-02-28T04:10:35;3.50;;;3.20;;
37383;SDS011;23258;49.718;11.082;2023-02-28T04:13:05;3.97;;;3.57;;
37383;SDS011;23258;49.718;11.082;2023-02-28T04:15:34;3.70;;;3.40;;
37383;SDS011;23258;49.718;11.082;2023-02-28T04:18:04;3.77;;;3.47;;
37383;SDS011;23258;49.718;11.082;2023-02-28T04:20:35;3.63;;;3.33;;
37383;SDS011;23258;49.718;11.082;2023-02-28T04:23:07;4.30;;;3.90;;
37383;SDS011;23258;49.718;11.082;2023-02-28T04:25:37;5.27;;;4.20;;
37383;SDS011;23258;49.718;11.082;2023-02-28T04:28:07;3.90;;;3.53;;
37383;SDS011;23258;49.718;11.082;2023-02-28T04:30:37;3.90;;;3.60;;
37383;SDS011;23258;49.718;11.082;2023-02-28T04:33:07;4.43;;;4.00;;
37383;SDS011;23258;49.718;11.082;2023-02-28T04:35:37;4.40;;;3.60;;
37383;SDS011;23258;49.718;11.082;2023-02-28T04:38:09;4.07;;;3.67;;
37383;SDS011;23258;49.718;11.082;2023-02-28T04:40:39;4.17;;;3.77;;
37383;SDS011;23258;49.718;11.082;2023-02-28T04:43:08;4.37;;;3.87;;
37383;SDS011;23258;49.718;11.082;2023-02-28T04:45:38;5.13;;;4.07;;
37383;SDS011;23258;49.718;11.082;2023-02-28T04:48:07;3.80;;;3.47;;
37383;SDS011;23258;49.718;11.082;2023-02-28T04:50:37;7.87;;;4.07;;
37383;SDS011;23258;49.718;11.082;2023-02-28T04:53:09;4.47;;;3.87;;
37383;SDS011;23258;49.718;11.082;2023-02-28T04:55:39;3.93;;;3.53;;
37383;SDS011;23258;49.718;11.082;2023-02-28T04:58:08;3.83;;;3.53;;
37383;SDS011;23258;49.718;11.082;2023-02-28T05:00:38;5.23;;;4.70;;
37383;SDS011;23258;49.718;11.082;2023-02-28T05:03:07;4.30;;;3.97;;
37383;SDS011;23258;49.718;11.082;2023-02-28T05:05:37;4.93;;;3.90;;
37383;SDS011;23258;49.718;11.082;2023-02-28T05:08:09;4.83;;;4.33;;
37383;SDS011;23258;49.718;11.082;2023-02-28T05:10:39;5.53;;;3.83;;
37383;SDS011;23258;49.718;11.082;2023-02-28T05:13:09;4.47;;;4.17;;
37383;SDS011;23258;49.718;11.082;2023-02-28T05:15:39;5.80;;;4.30;;
37383;SDS011;23258;49.718;11.082;2023-02-28T05:18:09;4.97;;;4.57;;
37383;SDS011;23258;49.718;11.082;2023-02-28T05:20:38;4.47;;;4.07;;
37383;SDS011;23258;49.718;11.082;2023-02-28T05:23:11;4.20;;;3.80;;
37383;SDS011;23258;49.718;11.082;2023-02-28T05:25:41;7.43;;;4.67;;
37383;SDS011;23258;49.718;11.082;2023-02-28T05:28:10;5.53;;;4.77;;
37383;SDS011;23258;49.718;11.082;2023-02-28T05:30:40;4.67;;;4.17;;
37383;SDS011;23258;49.718;11.082;2023-02-28T05:33:10;5.67;;;3.90;;
37383;SDS011;23258;49.718;11.082;2023-02-28T05:35:40;4.97;;;4.47;;
37383;SDS011;23258;49.718;11.082;2023-02-28T05:38:12;4.80;;;4.40;;
37383;SDS011;23258;49.718;11.082;2023-02-28T05:40:42;4.83;;;4.40;;
37383;SDS011;23258;49.718;11.082;2023-02-28T05:43:11;5.27;;;4.77;;
37383;SDS011;23258;49.718;11.082;2023-02-28T05:45:41;6.37;;;5.13;;
37383;SDS011;23258;49.718;11.082;2023-02-28T05:48:11;5.40;;;4.90;;
37383;SDS011;23258;49.718;11.082;2023-02-28T05:50:40;5.83;;;5.03;;
37383;SDS011;23258;49.718;11.082;2023-02-28T05:53:15;5.17;;;4.67;;
37383;SDS011;23258;49.718;11.082;2023-02-28T05:55:44;5.97;;;4.83;;
37383;SDS011;23258;49.718;11.082;2023-02-28T05:58:14;5.33;;;4.77;;
37383;SDS011;23258;49.718;11.082;2023-02-28T06:00:43;5.63;;;4.80;;
37383;SDS011;23258;49.718;11.082;2023-02-28T06:03:13;4.93;;;4.43;;
37383;SDS011;23258;49.718;11.082;2023-02-28T06:05:43;5.13;;;4.67;;
37383;SDS011;23258;49.718;11.082;2023-02-28T06:08:15;4.33;;;4.03;;
37383;SDS011;23258;49.718;11.082;2023-02-28T06:10:44;6.07;;;4.93;;
37383;SDS011;23258;49.718;11.082;2023-02-28T06:13:14;6.07;;;4.80;;
37383;SDS011;23258;49.718;11.082;2023-02-28T06:15:43;5.80;;;5.20;;
37383;SDS011;23258;49.718;11.082;2023-02-28T06:18:13;5.30;;;4.37;;
37383;SDS011;23258;49.718;11.082;2023-02-28T06:20:42;5.80;;;5.20;;
37383;SDS011;23258;49.718;11.082;2023-02-28T06:23:17;10.23;;;5.97;;
37383;SDS011;23258;49.718;11.082;2023-02-28T06:25:47;5.80;;;5.27;;
37383;SDS011;23258;49.718;11.082;2023-02-28T06:28:17;6.70;;;5.10;;
37383;SDS011;23258;49.718;11.082;2023-02-28T06:30:46;5.93;;;4.67;;
37383;SDS011;23258;49.718;11.082;2023-02-28T06:33:16;5.70;;;5.10;;
37383;SDS011;23258;49.718;11.082;2023-02-28T06:35:46;5.70;;;5.20;;
37383;SDS011;23258;49.718;11.082;2023-02-28T06:38:19;7.00;;;4.50;;
37383;SDS011;23258;49.718;11.082;2023-02-28T06:40:52;6.60;;;5.23;;
37383;SDS011;23258;49.718;11.082;2023-02-28T06:43:22;9.53;;;5.40;;
37383;SDS011;23258;49.718;11.082;2023-02-28T06:45:53;5.80;;;5.30;;
37383;SDS011;23258;49.718;11.082;2023-02-28T06:48:23;5.10;;;4.60;;
37383;SDS011;23258;49.718;11.082;2023-02-28T06:51:00;5.57;;;4.70;;
37383;SDS011;23258;49.718;11.082;2023-02-28T06:53:33;8.20;;;5.67;;
37383;SDS011;23258;49.718;11.082;2023-02-28T06:56:06;5.27;;;4.83;;
37383;SDS011;23258;49.718;11.082;2023-02-28T06:58:36;6.00;;;4.97;;
37383;SDS011;23258;49.718;11.082;2023-02-28T07:01:06;8.13;;;5.23;;
37383;SDS011;23258;49.718;11.082;2023-02-28T07:03:36;5.33;;;4.83;;
37383;SDS011;23258;49.718;11.082;2023-02-28T07:06:06;8.13;;;4.73;;
37383;SDS011;23258;49.718;11.082;2023-02-28T07:08:38;5.23;;;4.73;;
37383;SDS011;23258;49.718;11.082;2023-02-28T07:11:08;5.23;;;4.83;;
37383;SDS011;23258;49.718;11.082;2023-02-28T07:13:37;5.60;;;5.00;;
37383;SDS011;23258;49.718;11.082;2023-02-28T07:16:07;5.60;;;5.10;;
37383;SDS011;23258;49.718;11.082;2023-02-28T07:18:38;5.23;;;4.73;;
37383;SDS011;23258;49.718;11.082;2023-02-28T07:21:08;5.47;;;4.80;;
37383;SDS011;23258;49.718;11.082;2023-02-28T07:23:41;5.47;;;4.83;;
37383;SDS011;23258;49.718;11.082;2023-02-28T07:26:11;7.93;;;5.67;;
37383;SDS011;23258;49.718;11.082;2023-02-28T07:28:41;5.23;;;4.77;;
37383;SDS011;23258;49.718;11.082;2023-02-28T07:31:12;6.30;;;5.50;;
37383;SDS011;23258;49.718;11.082;2023-02-28T07:33:41;7.50;;;5.40;;
37383;SDS011;23258;49.718;11.082;2023-02-28T07:36:12;6.23;;;5.10;;
37383;SDS011;23258;49.718;11.082;2023-02-28T07:38:46;6.93;;;5.53;;
37383;SDS011;23258;49.718;11.082;2023-02-28T07:41:16;7.10;;;5.93;;
37383;SDS011;23258;49.718;11.082;2023-02-28T07:43:46;5.97;;;5.20;;
37383;SDS011;23258;49.718;11.082;2023-02-28T07:46:17;5.40;;;4.90;;
37383;SDS011;23258;49.718;11.082;2023-02-28T07:48:47;5.30;;;4.80;;
37383;SDS011;23258;49.718;11.082;2023-02-28T07:51:17;5.90;;;4.93;;
37383;SDS011;23258;49.718;11.082;2023-02-28T07:53:53;5.53;;;5.03;;
37383;SDS011;23258;49.718;11.082;2023-02-28T07:56:27;6.20;;;5.03;;
37383;SDS011;23258;49.718;11.082;2023-02-28T07:58:57;7.07;;;5.50;;
37383;SDS011;23258;49.718;11.082;2023-02-28T08:01:28;5.73;;;5.13;;
37383;SDS011;23258;49.718;11.082;2023-02-28T08:03:58;5.87;;;5.13;;
37383;SDS011;23258;49.718;11.082;2023-02-28T08:06:27;6.47;;;5.30;;
37383;SDS011;23258;49.718;11.082;2023-02-28T08:08:59;6.40;;;5.50;;
37383;SDS011;23258;49.718;11.082;2023-02-28T08:11:29;5.93;;;4.90;;
37383;SDS011;23258;49.718;11.082;2023-02-28T08:13:58;6.50;;;5.80;;
37383;SDS011;23258;49.718;11.082;2023-02-28T08:16:28;6.00;;;5.40;;
37383;SDS011;23258;49.718;11.082;2023-02-28T08:18:57;5.90;;;5.40;;
37383;SDS011;23258;49.718;11.082;2023-02-28T08:21:27;5.17;;;4.67;;
37383;SDS011;23258;49.718;11.082;2023-02-28T08:24:00;5.70;;;5.23;;
37383;SDS011;23258;49.718;11.082;2023-02-28T08:26:29;6.00;;;5.50;;
37383;SDS011;23258;49.718;11.082;2023-02-28T08:28:59;6.63;;;5.47;;
37383;SDS011;23258;49.718;11.082;2023-02-28T08:31:28;5.20;;;4.70;;
37383;SDS011;23258;49.718;11.082;2023-02-28T08:33:58;5.60;;;4.93;;
37383;SDS011;23258;49.718;11.082;2023-02-28T08:36:28;5.47;;;4.97;;
37383;SDS011;23258;49.718;11.082;2023-02-28T08:39:00;6.33;;;5.33;;
37383;SDS011;23258;49.718;11.082;2023-02-28T08:41:30;7.37;;;5.40;;
37383;SDS011;23258;49.718;11.082;2023-02-28T08:43:59;5.93;;;5.23;;
37383;SDS011;23258;49.718;11.082;2023-02-28T08:46:29;7.10;;;5.00;;
37383;SDS011;23258;49.718;11.082;2023-02-28T08:48:59;6.57;;;5.07;;
37383;SDS011;23258;49.718;11.082;2023-02-28T08:51:28;8.77;;;6.00;;
37383;SDS011;23258;49.718;11.082;2023-02-28T08:54:01;6.00;;;4.90;;
37383;SDS011;23258;49.718;11.082;2023-02-28T08:56:30;4.83;;;4.33;;
37383;SDS011;23258;49.718;11.082;2023-02-28T08:59:00;5.70;;;5.13;;
37383;SDS011;23258;49.718;11.082;2023-02-28T09:01:29;6.30;;;5.10;;
37383;SDS011;23258;49.718;11.082;2023-02-28T09:03:59;6.17;;;4.77;;
37383;SDS011;23258;49.718;11.082;2023-02-28T09:06:29;6.83;;;4.40;;
37383;SDS011;23258;49.718;11.082;2023-02-28T09:09:01;7.37;;;4.70;;
37383;SDS011;23258;49.718;11.082;2023-02-28T09:11:33;4.30;;;3.97;;
37383;SDS011;23258;49.718;11.082;2023-02-28T09:14:02;5.00;;;4.50;;
37383;SDS011;23258;49.718;11.082;2023-02-28T09:16:33;6.60;;;4.70;;
37383;SDS011;23258;49.718;11.082;2023-02-28T09:19:03;4.93;;;4.40;;
37383;SDS011;23258;49.718;11.082;2023-02-28T09:21:33;4.83;;;4.43;;
37383;SDS011;23258;49.718;11.082;2023-02-28T09:24:05;4.53;;;3.97;;
37383;SDS011;23258;49.718;11.082;2023-02-28T09:26:35;4.87;;;4.40;;
37383;SDS011;23258;49.718;11.082;2023-02-28T09:29:21;4.40;;;3.53;;
37383;SDS011;23258;49.718;11.082;2023-02-28T09:31:50;4.80;;;3.70;;
37383;SDS011;23258;49.718;11.082;2023-02-28T09:34:20;4.10;;;3.60;;
37383;SDS011;23258;49.718;11.082;2023-02-28T09:36:49;4.10;;;3.70;;
37383;SDS011;23258;49.718;11.082;2023-02-28T09:39:23;4.72;;;4.32;;
37383;SDS011;23258;49.718;11.082;2023-02-28T09:41:53;4.57;;;4.18;;
37383;SDS011;23258;49.718;11.082;2023-02-28T09:44:26;4.57;;;4.17;;
37383;SDS011;23258;49.718;11.082;2023-02-28T09:46:57;4.90;;;4.07;;
37383;SDS011;23258;49.718;11.082;2023-02-28T09:49:31;5.00;;;4.13;;
37383;SDS011;23258;49.718;11.082;2023-02-28T09:52:03;4.63;;;4.22;;
37383;SDS011;23258;49.718;11.082;2023-02-28T09:54:38;4.30;;;3.90;;
37383;SDS011;23258;49.718;11.082;2023-02-28T09:57:08;4.17;;;3.80;;
37383;SDS011;23258;49.718;11.082;2023-02-28T09:59:52;4.33;;;3.93;;
37383;SDS011;23258;49.718;11.082;2023-02-28T10:02:33;4.37;;;3.87;;
37383;SDS011;23258;49.718;11.082;2023-02-28T10:05:07;5.07;;;3.63;;
37383;SDS011;23258;49.718;11.082;2023-02-28T10:07:43;5.60;;;4.23;;
37383;SDS011;23258;49.718;11.082;2023-02-28T10:10:21;4.90;;;4.20;;
37383;SDS011;23258;49.718;11.082;2023-02-28T10:12:52;5.03;;;4.18;;
37383;SDS011;23258;49.718;11.082;2023-02-28T10:15:23;4.55;;;4.10;;
37383;SDS011;23258;49.718;11.082;2023-02-28T10:17:54;4.68;;;4.20;;
37383;SDS011;23258;49.718;11.082;2023-02-28T10:20:35;4.00;;;3.53;;
37383;SDS011;23258;49.718;11.082;2023-02-28T10:23:09;4.82;;;3.80;;
37383;SDS011;23258;49.718;11.082;2023-02-28T10:25:43;4.60;;;4.18;;
37383;SDS011;23258;49.718;11.082;2023-02-28T10:28:15;4.25;;;3.85;;
37383;SDS011;23258;49.718;11.082;2023-02-28T10:30:45;4.30;;;3.90;;
37383;SDS011;23258;49.718;11.082;2023-02-28T10:33:28;5.32;;;4.45;;
37383;SDS011;23258;49.718;11.082;2023-02-28T10:35:58;5.53;;;4.57;;
37383;SDS011;23258;49.718;11.082;2023-02-28T10:38:31;5.78;;;3.90;;
37383;SDS011;23258;49.718;11.082;2023-02-28T10:41:07;5.15;;;4.50;;
37383;SDS011;23258;49.718;11.082;2023-02-28T10:43:38;5.13;;;4.65;;
37383;SDS011;23258;49.718;11.082;2023-02-28T10:46:12;4.57;;;4.05;;
37383;SDS011;23258;49.718;11.082;2023-02-28T10:49:01;5.23;;;4.03;;
37383;SDS011;23258;49.718;11.082;2023-02-28T10:51:34;4.57;;;4.18;;
37383;SDS011;23258;49.718;11.082;2023-02-28T10:54:04;4.07;;;3.77;;
37383;SDS011;23258;49.718;11.082;2023-02-28T10:56:36;4.30;;;3.90;;
37383;SDS011;23258;49.718;11.082;2023-02-28T10:59:22;4.43;;;4.00;;
37383;SDS011;23258;49.718;11.082;2023-02-28T11:01:55;5.22;;;4.70;;
37383;SDS011;23258;49.718;11.082;2023-02-28T11:04:32;4.80;;;3.87;;
37383;SDS011;23258;49.718;11.082;2023-02-28T11:07:04;5.13;;;4.40;;
37383;SDS011;23258;49.718;11.082;2023-02-28T11:09:34;5.83;;;5.00;;
37383;SDS011;23258;49.718;11.082;2023-02-28T11:12:08;4.63;;;4.20;;
37383;SDS011;23258;49.718;11.082;2023-02-28T11:14:49;3.93;;;3.63;;
37383;SDS011;23258;49.718;11.082;2023-02-28T11:17:20;4.00;;;3.63;;
37383;SDS011;23258;49.718;11.082;2023-02-28T11:19:51;5.07;;;3.85;;
37383;SDS011;23258;49.718;11.082;2023-02-28T11:22:21;5.85;;;3.97;;
37383;SDS011;23258;49.718;11.082;2023-02-28T11:24:52;4.65;;;3.97;;
37383;SDS011;23258;49.718;11.082;2023-02-28T11:27:39;4.60;;;3.90;;
37383;SDS011;23258;49.718;11.082;2023-02-28T11:30:28;4.45;;;4.05;;
37383;SDS011;23258;49.718;11.082;2023-02-28T11:33:01;4.75;;;4.20;;
37383;SDS011;23258;49.718;11.082;2023-02-28T11:35:47;4.50;;;4.00;;
37383;SDS011;23258;49.718;11.082;2023-02-28T11:38:18;4.18;;;3.78;;
37383;SDS011;23258;49.718;11.082;2023-02-28T11:40:48;4.97;;;4.47;;
37383;SDS011;23258;49.718;11.082;2023-02-28T11:43:30;6.38;;;5.20;;
37383;SDS011;23258;49.718;11.082;2023-02-28T11:46:10;7.93;;;4.05;;
37383;SDS011;23258;49.718;11.082;2023-02-28T11:48:44;5.13;;;3.75;;
37383;SDS011;23258;49.718;11.082;2023-02-28T11:51:18;3.90;;;3.60;;
37383;SDS011;23258;49.718;11.082;2023-02-28T11:56:38;4.95;;;4.07;;
37383;SDS011;23258;49.718;11.082;2023-02-28T11:59:19;4.22;;;3.88;;
37383;SDS011;23258;49.718;11.082;2023-02-28T12:04:49;4.57;;;4.13;;
37383;SDS011;23258;49.718;11.082;2023-02-28T12:07:25;5.30;;;4.45;;
37383;SDS011;23258;49.718;11.082;2023-02-28T12:10:00;5.40;;;4.40;;
37383;SDS011;23258;49.718;11.082;2023-02-28T12:12:36;5.13;;;4.10;;
37383;SDS011;23258;49.718;11.082;2023-02-28T12:15:23;4.75;;;4.25;;
37383;SDS011;23258;49.718;11.082;2023-02-28T12:18:00;4.70;;;4.30;;
37383;SDS011;23258;49.718;11.082;2023-02-28T12:20:34;4.75;;;4.32;;
37383;SDS011;23258;49.718;11.082;2023-02-28T12:25:54;4.68;;;4.00;;
37383;SDS011;23258;49.718;11.082;2023-02-28T12:28:27;4.75;;;4.35;;
37383;SDS011;23258;49.718;11.082;2023-02-28T12:31:03;4.22;;;3.92;;
37383;SDS011;23258;49.718;11.082;2023-02-28T12:33:36;4.55;;;4.15;;
37383;SDS011;23258;49.718;11.082;2023-02-28T12:36:09;7.20;;;4.72;;
37383;SDS011;23258;49.718;11.082;2023-02-28T12:38:43;5.57;;;4.20;;
37383;SDS011;23258;49.718;11.082;2023-02-28T12:41:13;4.50;;;4.10;;
37383;SDS011;23258;49.718;11.082;2023-02-28T12:43:44;4.82;;;4.43;;
37383;SDS011;23258;49.718;11.082;2023-02-28T12:46:17;6.63;;;3.95;;
37383;SDS011;23258;49.718;11.082;2023-02-28T12:48:50;8.13;;;4.60;;
37383;SDS011;23258;49.718;11.082;2023-02-28T12:51:22;4.22;;;3.80;;
37383;SDS011;23258;49.718;11.082;2023-02-28T12:53:58;3.90;;;3.60;;
37383;SDS011;23258;49.718;11.082;2023-02-28T12:56:31;4.40;;;4.00;;
37383;SDS011;23258;49.718;11.082;2023-02-28T12:59:03;4.40;;;4.00;;
37383;SDS011;23258;49.718;11.082;2023-02-28T13:01:40;5.47;;;4.57;;
37383;SDS011;23258;49.718;11.082;2023-02-28T13:07:13;4.57;;;4.18;;
37383;SDS011;23258;49.718;11.082;2023-02-28T13:09:51;4.80;;;4.18;;
37383;SDS011;23258;49.718;11.082;2023-02-28T13:12:21;4.53;;;4.13;;
37383;SDS011;23258;49.718;11.082;2023-02-28T13:15:00;4.72;;;4.30;;
37383;SDS011;23258;49.718;11.082;2023-02-28T13:17:34;4.70;;;4.30;;
37383;SDS011;23258;49.718;11.082;2023-02-28T13:20:04;4.22;;;3.92;;
37383;SDS011;23258;49.718;11.082;2023-02-28T13:22:44;5.18;;;4.15;;
37383;SDS011;23258;49.718;11.082;2023-02-28T13:27:58;4.85;;;4.32;;
37383;SDS011;23258;49.718;11.082;2023-02-28T13:33:27;5.97;;;4.50;;
37383;SDS011;23258;49.718;11.082;2023-02-28T13:36:07;4.57;;;4.18;;
37383;SDS011;23258;49.718;11.082;2023-02-28T13:38:38;4.88;;;4.38;;
37383;SDS011;23258;49.718;11.082;2023-02-28T13:43:59;4.53;;;4.13;;
37383;SDS011;23258;49.718;11.082;2023-02-28T13:46:30;4.05;;;3.75;;
37383;SDS011;23258;49.718;11.082;2023-02-28T13:51:47;4.50;;;4.10;;
37383;SDS011;23258;49.718;11.082;2023-02-28T13:54:24;4.03;;;3.72;;
37383;SDS011;23258;49.718;11.082;2023-02-28T13:57:01;4.80;;;4.30;;
37383;SDS011;23258;49.718;11.082;2023-02-28T13:59:35;5.25;;;3.65;;
37383;SDS011;23258;49.718;11.082;2023-02-28T14:02:13;5.63;;;4.07;;
37383;SDS011;23258;49.718;11.082;2023-02-28T14:04:54;4.70;;;4.30;;
37383;SDS011;23258;49.718;11.082;2023-02-28T14:07:32;4.50;;;4.20;;
37383;SDS011;23258;49.718;11.082;2023-02-28T14:10:07;5.90;;;4.60;;
37383;SDS011;23258;49.718;11.082;2023-02-28T14:15:39;6.20;;;4.95;;
37383;SDS011;23258;49.718;11.082;2023-02-28T14:20:58;4.45;;;4.05;;
37383;SDS011;23258;49.718;11.082;2023-02-28T14:26:25;5.30;;;4.80;;
37383;SDS011;23258;49.718;11.082;2023-02-28T14:29:07;4.82;;;4.35;;
37383;SDS011;23258;49.718;11.082;2023-02-28T14:31:43;4.78;;;4.40;;
37383;SDS011;23258;49.718;11.082;2023-02-28T14:34:20;4.70;;;3.85;;
37383;SDS011;23258;49.718;11.082;2023-02-28T14:36:50;4.30;;;3.67;;
37383;SDS011;23258;49.718;11.082;2023-02-28T14:39:22;4.45;;;4.05;;
37383;SDS011;23258;49.718;11.082;2023-02-28T14:41:56;4.30;;;3.90;;
37383;SDS011;23258;49.718;11.082;2023-02-28T14:44:29;4.28;;;3.88;;
37383;SDS011;23258;49.718;11.082;2023-02-28T14:47:00;5.18;;;4.05;;
37383;SDS011;23258;49.718;11.082;2023-02-28T14:49:34;5.35;;;4.43;;
37383;SDS011;23258;49.718;11.082;2023-02-28T14:52:06;4.28;;;3.88;;
37383;SDS011;23258;49.718;11.082;2023-02-28T14:54:37;4.22;;;3.83;;
37383;SDS011;23258;49.718;11.082;2023-02-28T14:57:18;4.93;;;4.03;;
37383;SDS011;23258;49.718;11.082;2023-02-28T14:59:57;4.45;;;4.05;;
37383;SDS011;23258;49.718;11.082;2023-02-28T15:02:29;4.07;;;3.78;;
37383;SDS011;23258;49.718;11.082;2023-02-28T15:05:00;4.90;;;4.50;;
37383;SDS011;23258;49.718;11.082;2023-02-28T15:07:30;4.57;;;4.18;;
37383;SDS011;23258;49.718;11.082;2023-02-28T15:10:06;5.47;;;4.72;;
37383;SDS011;23258;49.718;11.082;2023-02-28T15:12:39;5.15;;;4.65;;
37383;SDS011;23258;49.718;11.082;2023-02-28T15:15:14;6.00;;;4.60;;
37383;SDS011;23258;49.718;11.082;2023-02-28T15:17:45;4.63;;;4.22;;
37383;SDS011;23258;49.718;11.082;2023-02-28T15:20:15;4.40;;;4.03;;
37383;SDS011;23258;49.718;11.082;2023-02-28T15:22:46;4.18;;;3.75;;
37383;SDS011;23258;49.718;11.082;2023-02-28T15:25:17;5.55;;;4.43;;
37383;SDS011;23258;49.718;11.082;2023-02-28T15:27:51;6.15;;;4.35;;
37383;SDS011;23258;49.718;11.082;2023-02-28T15:30:23;4.43;;;3.90;;
37383;SDS011;23258;49.718;11.082;2023-02-28T15:33:04;4.18;;;3.88;;
37383;SDS011;23258;49.718;11.082;2023-02-28T15:35:37;4.70;;;4.18;;
37383;SDS011;23258;49.718;11.082;2023-02-28T15:38:13;4.45;;;3.97;;
37383;SDS011;23258;49.718;11.082;2023-02-28T15:40:44;5.28;;;4.10;;
37383;SDS011;23258;49.718;11.082;2023-02-28T15:43:26;4.25;;;3.88;;